T44 EFHK-EFTU
Flight info
| Callsign | T44 |
|---|---|
| Flight time | 1h 9m |
| Altitude | 10000 |
| Route | DCT EFMA DCT EFTU |
| Aircraft | PC12/L-SDFGRY/H |
Departure
| Time | 2026-04-25 17:58 |
|---|---|
| Airport | Helsinki Vantaa Airport (EFHK) |
Arrival
| Time | 2026-04-25 19:07 |
|---|---|
| Airport | Turku Airport (EFTU) |
| Time | Latitude | Longitude | Altitude | Speed | Heading |
|---|---|---|---|---|---|
| 2026-04-25 17:38 | 60.30866 | 24.98065 | 159 ft | 0 kts | 240° |
| 2026-04-25 17:48 | 60.30864 | 24.98057 | 159 ft | 1 kts | 259° |
| 2026-04-25 17:48 | 60.30883 | 24.98020 | 159 ft | 8 kts | 343° |
| 2026-04-25 17:49 | 60.30923 | 24.98114 | 158 ft | 12 kts | 57° |
| 2026-04-25 17:49 | 60.31000 | 24.98180 | 158 ft | 14 kts | 338° |
| 2026-04-25 17:49 | 60.31079 | 24.98113 | 158 ft | 12 kts | 332° |
| 2026-04-25 17:49 | 60.31157 | 24.98033 | 158 ft | 18 kts | 332° |
| 2026-04-25 17:50 | 60.31296 | 24.97890 | 158 ft | 22 kts | 333° |
| 2026-04-25 17:50 | 60.31419 | 24.97764 | 157 ft | 18 kts | 330° |
| 2026-04-25 17:50 | 60.31518 | 24.97662 | 158 ft | 14 kts | 333° |
| 2026-04-25 17:50 | 60.31596 | 24.97581 | 159 ft | 11 kts | 330° |
| 2026-04-25 17:51 | 60.31667 | 24.97507 | 157 ft | 13 kts | 331° |
| 2026-04-25 17:51 | 60.31749 | 24.97422 | 158 ft | 14 kts | 334° |
| 2026-04-25 17:51 | 60.31865 | 24.97302 | 158 ft | 22 kts | 331° |
| 2026-04-25 17:51 | 60.31991 | 24.97171 | 158 ft | 19 kts | 332° |
| 2026-04-25 17:52 | 60.32097 | 24.97067 | 158 ft | 15 kts | 328° |
| 2026-04-25 17:52 | 60.32126 | 24.97028 | 158 ft | 15 kts | 326° |
| 2026-04-25 17:52 | 60.32254 | 24.96901 | 159 ft | 11 kts | 331° |
| 2026-04-25 17:52 | 60.32325 | 24.96826 | 161 ft | 12 kts | 333° |
| 2026-04-25 17:53 | 60.32410 | 24.96739 | 166 ft | 14 kts | 333° |
| 2026-04-25 17:53 | 60.32501 | 24.96641 | 170 ft | 16 kts | 330° |
| 2026-04-25 17:53 | 60.32611 | 24.96512 | 168 ft | 20 kts | 333° |
| 2026-04-25 17:53 | 60.32737 | 24.96375 | 167 ft | 19 kts | 326° |
| 2026-04-25 17:54 | 60.32857 | 24.96241 | 169 ft | 21 kts | 329° |
| 2026-04-25 17:54 | 60.32903 | 24.96037 | 171 ft | 15 kts | 259° |
| 2026-04-25 17:54 | 60.32975 | 24.95883 | 174 ft | 17 kts | 329° |
| 2026-04-25 17:54 | 60.33081 | 24.95748 | 176 ft | 20 kts | 321° |
| 2026-04-25 17:55 | 60.33191 | 24.95548 | 178 ft | 21 kts | 304° |
| 2026-04-25 17:55 | 60.33161 | 24.95288 | 175 ft | 21 kts | 232° |
| 2026-04-25 17:55 | 60.33105 | 24.95075 | 174 ft | 17 kts | 275° |
| 2026-04-25 17:55 | 60.33112 | 24.94856 | 175 ft | 13 kts | 276° |
| 2026-04-25 17:56 | 60.33116 | 24.94714 | 179 ft | 7 kts | 274° |
| 2026-04-25 17:56 | 60.33120 | 24.94532 | 183 ft | 20 kts | 268° |
| 2026-04-25 17:56 | 60.33043 | 24.94233 | 183 ft | 44 kts | 239° |
| 2026-04-25 17:56 | 60.32894 | 24.93876 | 180 ft | 37 kts | 224° |
| 2026-04-25 17:57 | 60.32589 | 24.93257 | 177 ft | 87 kts | 220° |
| 2026-04-25 17:57 | 60.32152 | 24.92393 | 433 ft | 91 kts | 245° |
| 2026-04-25 17:57 | 60.31706 | 24.91289 | 640 ft | 121 kts | 240° |
| 2026-04-25 17:57 | 60.31513 | 24.90849 | 632 ft | 135 kts | 238° |
| 2026-04-25 17:58 | 60.30393 | 24.88233 | 1130 ft | 153 kts | 248° |
| 2026-04-25 17:58 | 60.29971 | 24.86238 | 1654 ft | 155 kts | 268° |
| 2026-04-25 17:58 | 60.29854 | 24.84190 | 2331 ft | 147 kts | 284° |
| 2026-04-25 17:58 | 60.30027 | 24.82102 | 2736 ft | 157 kts | 295° |
| 2026-04-25 17:59 | 60.30284 | 24.79872 | 3132 ft | 169 kts | 291° |
| 2026-04-25 17:59 | 60.30290 | 24.77384 | 3540 ft | 191 kts | 263° |
| 2026-04-25 17:59 | 60.29800 | 24.74824 | 3942 ft | 201 kts | 253° |
| 2026-04-25 17:59 | 60.29255 | 24.72236 | 4338 ft | 205 kts | 255° |
| 2026-04-25 18:00 | 60.28708 | 24.69557 | 4728 ft | 208 kts | 252° |
| 2026-04-25 18:00 | 60.28158 | 24.66847 | 5127 ft | 210 kts | 255° |
| 2026-04-25 18:00 | 60.27608 | 24.64135 | 5633 ft | 205 kts | 252° |
| 2026-04-25 18:00 | 60.27074 | 24.61531 | 6264 ft | 196 kts | 252° |
| 2026-04-25 18:01 | 60.26566 | 24.59040 | 6907 ft | 189 kts | 252° |
| 2026-04-25 18:01 | 60.26071 | 24.56631 | 7560 ft | 184 kts | 252° |
| 2026-04-25 18:01 | 60.25590 | 24.54290 | 8226 ft | 179 kts | 252° |
| 2026-04-25 18:01 | 60.25122 | 24.52000 | 8915 ft | 176 kts | 251° |
| 2026-04-25 18:02 | 60.24659 | 24.49734 | 9377 ft | 186 kts | 256° |
| 2026-04-25 18:02 | 60.24074 | 24.47198 | 9383 ft | 213 kts | 248° |
| 2026-04-25 18:02 | 60.23330 | 24.44481 | 9391 ft | 230 kts | 245° |
| 2026-04-25 18:02 | 60.22554 | 24.41584 | 9396 ft | 240 kts | 245° |
| 2026-04-25 18:03 | 60.21754 | 24.38588 | 9401 ft | 246 kts | 248° |
| 2026-04-25 18:03 | 60.20926 | 24.35525 | 9409 ft | 251 kts | 246° |
| 2026-04-25 18:03 | 60.20090 | 24.32411 | 9409 ft | 255 kts | 245° |
| 2026-04-25 18:03 | 60.19243 | 24.29279 | 9410 ft | 256 kts | 248° |
| 2026-04-25 18:04 | 60.18388 | 24.26131 | 9410 ft | 257 kts | 248° |
| 2026-04-25 18:04 | 60.17534 | 24.22969 | 9421 ft | 258 kts | 247° |
| 2026-04-25 18:04 | 60.16676 | 24.19806 | 9419 ft | 258 kts | 247° |
| 2026-04-25 18:04 | 60.15817 | 24.16663 | 9420 ft | 250 kts | 247° |
| 2026-04-25 18:05 | 60.15006 | 24.13676 | 9435 ft | 238 kts | 248° |
| 2026-04-25 18:05 | 60.14228 | 24.10818 | 9433 ft | 232 kts | 245° |
| 2026-04-25 18:05 | 60.13469 | 24.08026 | 9433 ft | 228 kts | 246° |
| 2026-04-25 18:05 | 60.12715 | 24.05247 | 9432 ft | 225 kts | 249° |
| 2026-04-25 18:06 | 60.11968 | 24.02520 | 9435 ft | 222 kts | 245° |
| 2026-04-25 18:06 | 60.11229 | 23.99827 | 9436 ft | 220 kts | 249° |
| 2026-04-25 18:06 | 60.10491 | 23.97116 | 9438 ft | 223 kts | 247° |
| 2026-04-25 18:06 | 60.09736 | 23.94375 | 9446 ft | 226 kts | 248° |
| 2026-04-25 18:07 | 60.08976 | 23.91608 | 9432 ft | 228 kts | 250° |
| 2026-04-25 18:07 | 60.08409 | 23.88704 | 9439 ft | 221 kts | 266° |
| 2026-04-25 18:07 | 60.08273 | 23.85709 | 9436 ft | 218 kts | 274° |
| 2026-04-25 18:07 | 60.08220 | 23.82661 | 9438 ft | 220 kts | 275° |
| 2026-04-25 18:08 | 60.08165 | 23.79580 | 9438 ft | 222 kts | 274° |
| 2026-04-25 18:08 | 60.08102 | 23.76481 | 9448 ft | 224 kts | 274° |
| 2026-04-25 18:08 | 60.08036 | 23.73379 | 9454 ft | 223 kts | 275° |
| 2026-04-25 18:08 | 60.07960 | 23.70288 | 9455 ft | 222 kts | 275° |
| 2026-04-25 18:09 | 60.07894 | 23.67196 | 9454 ft | 222 kts | 276° |
| 2026-04-25 18:09 | 60.07834 | 23.64107 | 9455 ft | 222 kts | 276° |
| 2026-04-25 18:09 | 60.07766 | 23.61027 | 9455 ft | 221 kts | 275° |
| 2026-04-25 18:09 | 60.07741 | 23.60027 | 9455 ft | 221 kts | 275° |
| 2026-04-25 18:10 | 60.07617 | 23.54918 | 9457 ft | 220 kts | 276° |
| 2026-04-25 18:10 | 60.07552 | 23.51854 | 9458 ft | 220 kts | 276° |
| 2026-04-25 18:10 | 60.07490 | 23.48790 | 9459 ft | 220 kts | 274° |
| 2026-04-25 18:10 | 60.07415 | 23.45729 | 9487 ft | 221 kts | 272° |
| 2026-04-25 18:11 | 60.07338 | 23.42558 | 9487 ft | 234 kts | 274° |
| 2026-04-25 18:11 | 60.07269 | 23.39257 | 9483 ft | 241 kts | 274° |
| 2026-04-25 18:11 | 60.07185 | 23.35867 | 9492 ft | 246 kts | 273° |
| 2026-04-25 18:11 | 60.07098 | 23.32429 | 9492 ft | 248 kts | 274° |
| 2026-04-25 18:12 | 60.07013 | 23.29008 | 9491 ft | 251 kts | 273° |
| 2026-04-25 18:12 | 60.06924 | 23.25517 | 9493 ft | 252 kts | 273° |
| 2026-04-25 18:12 | 60.06838 | 23.22017 | 9492 ft | 251 kts | 275° |
| 2026-04-25 18:12 | 60.06754 | 23.18520 | 9492 ft | 252 kts | 273° |
| 2026-04-25 18:13 | 60.06663 | 23.15021 | 9503 ft | 252 kts | 275° |
| 2026-04-25 18:13 | 60.06572 | 23.11507 | 9504 ft | 253 kts | 275° |
| 2026-04-25 18:13 | 60.06479 | 23.08006 | 9502 ft | 249 kts | 275° |
| 2026-04-25 18:14 | 60.06299 | 23.01218 | 9500 ft | 243 kts | 275° |
| 2026-04-25 18:14 | 60.06209 | 22.97848 | 9500 ft | 242 kts | 275° |
| 2026-04-25 18:14 | 60.06118 | 22.94500 | 9500 ft | 241 kts | 275° |
| 2026-04-25 18:14 | 60.06027 | 22.91161 | 9501 ft | 240 kts | 275° |
| 2026-04-25 18:15 | 60.05935 | 22.87824 | 9522 ft | 240 kts | 275° |
| 2026-04-25 18:15 | 60.05842 | 22.84499 | 9524 ft | 240 kts | 275° |
| 2026-04-25 18:15 | 60.05748 | 22.81164 | 9524 ft | 240 kts | 275° |
| 2026-04-25 18:15 | 60.05654 | 22.77837 | 9524 ft | 239 kts | 275° |
| 2026-04-25 18:16 | 60.05560 | 22.74560 | 9523 ft | 239 kts | 275° |
| 2026-04-25 18:16 | 60.05464 | 22.71245 | 9524 ft | 239 kts | 275° |
| 2026-04-25 18:16 | 60.05270 | 22.64604 | 9525 ft | 239 kts | 275° |
| 2026-04-25 18:17 | 60.05171 | 22.61287 | 9531 ft | 239 kts | 275° |
| 2026-04-25 18:17 | 60.05072 | 22.57967 | 9544 ft | 239 kts | 275° |
| 2026-04-25 18:17 | 60.04972 | 22.54648 | 9544 ft | 239 kts | 275° |
| 2026-04-25 18:17 | 60.04871 | 22.51327 | 9542 ft | 238 kts | 275° |
| 2026-04-25 18:18 | 60.04769 | 22.48021 | 9540 ft | 239 kts | 275° |
| 2026-04-25 18:18 | 60.04668 | 22.44751 | 9539 ft | 239 kts | 275° |
| 2026-04-25 18:18 | 60.04565 | 22.41454 | 9543 ft | 236 kts | 275° |
| 2026-04-25 18:18 | 60.04459 | 22.38181 | 9541 ft | 236 kts | 275° |
| 2026-04-25 18:19 | 60.04354 | 22.34911 | 9544 ft | 235 kts | 275° |
| 2026-04-25 18:19 | 60.04250 | 22.31643 | 9544 ft | 235 kts | 276° |
| 2026-04-25 18:19 | 60.04146 | 22.28384 | 9559 ft | 235 kts | 275° |
| 2026-04-25 18:19 | 60.04040 | 22.25121 | 9559 ft | 235 kts | 275° |
| 2026-04-25 18:20 | 60.03934 | 22.21872 | 9565 ft | 234 kts | 276° |
| 2026-04-25 18:20 | 60.03827 | 22.18629 | 9568 ft | 234 kts | 276° |
| 2026-04-25 18:20 | 60.03722 | 22.15434 | 9565 ft | 233 kts | 276° |
| 2026-04-25 18:20 | 60.03613 | 22.12191 | 9565 ft | 233 kts | 276° |
| 2026-04-25 18:21 | 60.03504 | 22.08951 | 9565 ft | 233 kts | 276° |
| 2026-04-25 18:21 | 60.03395 | 22.05712 | 9565 ft | 233 kts | 275° |
| 2026-04-25 18:21 | 60.03284 | 22.02471 | 9565 ft | 233 kts | 275° |
| 2026-04-25 18:21 | 60.03173 | 21.99238 | 9579 ft | 233 kts | 275° |
| 2026-04-25 18:22 | 60.03061 | 21.95997 | 9582 ft | 234 kts | 275° |
| 2026-04-25 18:22 | 60.03024 | 21.94945 | 9582 ft | 234 kts | 275° |
| 2026-04-25 18:22 | 60.02834 | 21.89516 | 9590 ft | 233 kts | 275° |
| 2026-04-25 18:22 | 60.02721 | 21.86329 | 9582 ft | 233 kts | 275° |
| 2026-04-25 18:23 | 60.02605 | 21.83088 | 9579 ft | 233 kts | 275° |
| 2026-04-25 18:23 | 60.02490 | 21.79881 | 9584 ft | 233 kts | 275° |
| 2026-04-25 18:23 | 60.02373 | 21.76611 | 9579 ft | 234 kts | 275° |
| 2026-04-25 18:23 | 60.02255 | 21.73377 | 9579 ft | 235 kts | 275° |
| 2026-04-25 18:24 | 60.02135 | 21.70107 | 9562 ft | 235 kts | 276° |
| 2026-04-25 18:24 | 60.02016 | 21.66864 | 9600 ft | 234 kts | 276° |
| 2026-04-25 18:24 | 60.01896 | 21.63619 | 9599 ft | 234 kts | 276° |
| 2026-04-25 18:24 | 60.01774 | 21.60363 | 9600 ft | 235 kts | 275° |
| 2026-04-25 18:25 | 60.01653 | 21.57148 | 9603 ft | 235 kts | 275° |
| 2026-04-25 18:25 | 60.01530 | 21.53887 | 9602 ft | 235 kts | 275° |
| 2026-04-25 18:25 | 60.01405 | 21.50630 | 9602 ft | 235 kts | 275° |
| 2026-04-25 18:25 | 60.01280 | 21.47372 | 9602 ft | 235 kts | 275° |
| 2026-04-25 18:26 | 60.01155 | 21.44114 | 9603 ft | 235 kts | 275° |
| 2026-04-25 18:26 | 60.01028 | 21.40857 | 9617 ft | 235 kts | 275° |
| 2026-04-25 18:26 | 60.00901 | 21.37602 | 9617 ft | 235 kts | 275° |
| 2026-04-25 18:26 | 60.00773 | 21.34352 | 9617 ft | 235 kts | 275° |
| 2026-04-25 18:27 | 60.00644 | 21.31095 | 9620 ft | 235 kts | 275° |
| 2026-04-25 18:27 | 60.00515 | 21.27845 | 9620 ft | 235 kts | 275° |
| 2026-04-25 18:27 | 60.00386 | 21.24639 | 9620 ft | 235 kts | 275° |
| 2026-04-25 18:27 | 60.00255 | 21.21385 | 9620 ft | 235 kts | 275° |
| 2026-04-25 18:28 | 60.00123 | 21.18134 | 9616 ft | 235 kts | 275° |
| 2026-04-25 18:28 | 59.99990 | 21.14877 | 9616 ft | 235 kts | 275° |
| 2026-04-25 18:28 | 59.99857 | 21.11633 | 9616 ft | 235 kts | 275° |
| 2026-04-25 18:29 | 59.99587 | 21.05134 | 9638 ft | 234 kts | 275° |
| 2026-04-25 18:29 | 59.99453 | 21.01929 | 9639 ft | 235 kts | 275° |
| 2026-04-25 18:30 | 59.99041 | 20.92167 | 9635 ft | 235 kts | 274° |
| 2026-04-25 18:30 | 59.98907 | 20.88910 | 9635 ft | 235 kts | 274° |
| 2026-04-25 18:30 | 59.98767 | 20.85657 | 9635 ft | 235 kts | 274° |
| 2026-04-25 18:30 | 59.98625 | 20.82399 | 9635 ft | 236 kts | 274° |
| 2026-04-25 18:31 | 59.98482 | 20.79136 | 9654 ft | 236 kts | 274° |
| 2026-04-25 18:31 | 59.98339 | 20.75924 | 9654 ft | 229 kts | 274° |
| 2026-04-25 18:31 | 59.98200 | 20.72783 | 9562 ft | 227 kts | 274° |
| 2026-04-25 18:31 | 59.98063 | 20.69641 | 9424 ft | 228 kts | 274° |
| 2026-04-25 18:32 | 59.97924 | 20.66487 | 9288 ft | 228 kts | 274° |
| 2026-04-25 18:32 | 59.97783 | 20.63315 | 9072 ft | 231 kts | 274° |
| 2026-04-25 18:32 | 59.97639 | 20.60151 | 8989 ft | 228 kts | 274° |
| 2026-04-25 18:32 | 59.97497 | 20.57058 | 8906 ft | 226 kts | 274° |
| 2026-04-25 18:33 | 59.97356 | 20.53938 | 8821 ft | 225 kts | 274° |
| 2026-04-25 18:33 | 59.97214 | 20.50848 | 8841 ft | 222 kts | 274° |
| 2026-04-25 18:33 | 59.97073 | 20.47785 | 8825 ft | 221 kts | 274° |
| 2026-04-25 18:33 | 59.96933 | 20.44733 | 8797 ft | 221 kts | 274° |
| 2026-04-25 18:34 | 59.96791 | 20.41687 | 8778 ft | 220 kts | 274° |
| 2026-04-25 18:34 | 59.96650 | 20.38584 | 8470 ft | 229 kts | 274° |
| 2026-04-25 18:34 | 59.96502 | 20.35369 | 8144 ft | 235 kts | 274° |
| 2026-04-25 18:34 | 59.96348 | 20.32137 | 7824 ft | 238 kts | 274° |
| 2026-04-25 18:35 | 59.96189 | 20.28833 | 7505 ft | 240 kts | 274° |
| 2026-04-25 18:35 | 59.96030 | 20.25499 | 7165 ft | 242 kts | 274° |
| 2026-04-25 18:35 | 59.95870 | 20.22132 | 6779 ft | 245 kts | 273° |
| 2026-04-25 18:35 | 59.95705 | 20.18767 | 6474 ft | 243 kts | 273° |
| 2026-04-25 18:36 | 59.95542 | 20.15424 | 6194 ft | 242 kts | 273° |
| 2026-04-25 18:36 | 59.95380 | 20.12088 | 5899 ft | 241 kts | 273° |
| 2026-04-25 18:36 | 59.95217 | 20.08758 | 5598 ft | 241 kts | 272° |
| 2026-04-25 18:36 | 59.95054 | 20.05439 | 5301 ft | 240 kts | 272° |
| 2026-04-25 18:37 | 59.94892 | 20.02172 | 5010 ft | 240 kts | 272° |
| 2026-04-25 18:37 | 59.94725 | 19.98825 | 4714 ft | 239 kts | 272° |
| 2026-04-25 18:37 | 59.94563 | 19.95575 | 4405 ft | 239 kts | 272° |
| 2026-04-25 18:37 | 59.94583 | 19.92377 | 4070 ft | 216 kts | 287° |
| 2026-04-25 18:38 | 59.94998 | 19.89737 | 3739 ft | 186 kts | 300° |
| 2026-04-25 18:38 | 59.95490 | 19.87481 | 3413 ft | 170 kts | 300° |
| 2026-04-25 18:38 | 59.95943 | 19.85387 | 3090 ft | 159 kts | 301° |
| 2026-04-25 18:38 | 59.96365 | 19.83436 | 2851 ft | 147 kts | 301° |
| 2026-04-25 18:39 | 59.96752 | 19.81644 | 2687 ft | 134 kts | 302° |
| 2026-04-25 18:39 | 59.97113 | 19.79984 | 2527 ft | 126 kts | 304° |
| 2026-04-25 18:39 | 59.97635 | 19.78741 | 2362 ft | 115 kts | 330° |
| 2026-04-25 18:39 | 59.98362 | 19.78231 | 2203 ft | 111 kts | 354° |
| 2026-04-25 18:40 | 59.99120 | 19.78494 | 2041 ft | 113 kts | 15° |
| 2026-04-25 18:40 | 59.99836 | 19.79122 | 1885 ft | 111 kts | 15° |
| 2026-04-25 18:40 | 60.00510 | 19.79706 | 1874 ft | 100 kts | 15° |
| 2026-04-25 18:40 | 60.01245 | 19.80308 | 1906 ft | 137 kts | 16° |
| 2026-04-25 18:41 | 60.02188 | 19.81120 | 1902 ft | 154 kts | 18° |
| 2026-04-25 18:41 | 60.03206 | 19.82014 | 1904 ft | 165 kts | 19° |
| 2026-04-25 18:41 | 60.04336 | 19.82986 | 1842 ft | 190 kts | 19° |
| 2026-04-25 18:41 | 60.05462 | 19.83976 | 1560 ft | 169 kts | 19° |
| 2026-04-25 18:42 | 60.06488 | 19.84876 | 1299 ft | 152 kts | 18° |
| 2026-04-25 18:42 | 60.06803 | 19.85151 | 1213 ft | 142 kts | 18° |
| 2026-04-25 18:42 | 60.08062 | 19.86241 | 866 ft | 99 kts | 15° |
| 2026-04-25 18:42 | 60.08646 | 19.86736 | 728 ft | 91 kts | 14° |
| 2026-04-25 18:43 | 60.09230 | 19.87229 | 571 ft | 90 kts | 15° |
| 2026-04-25 18:43 | 60.09796 | 19.87712 | 435 ft | 89 kts | 18° |
| 2026-04-25 18:43 | 60.10369 | 19.88204 | 297 ft | 87 kts | 18° |
| 2026-04-25 18:43 | 60.10918 | 19.88676 | 134 ft | 90 kts | 20° |
| 2026-04-25 18:44 | 60.11479 | 19.89282 | 137 ft | 94 kts | 33° |
| 2026-04-25 18:44 | 60.12059 | 19.89933 | 116 ft | 109 kts | 17° |
| 2026-04-25 18:44 | 60.12742 | 19.90500 | 574 ft | 101 kts | 15° |
| 2026-04-25 18:44 | 60.13363 | 19.91069 | 1098 ft | 94 kts | 17° |
| 2026-04-25 18:45 | 60.13930 | 19.91611 | 1618 ft | 86 kts | 17° |
| 2026-04-25 18:45 | 60.14442 | 19.92122 | 2149 ft | 78 kts | 17° |
| 2026-04-25 18:45 | 60.14904 | 19.92594 | 2655 ft | 72 kts | 17° |
| 2026-04-25 18:45 | 60.15314 | 19.93036 | 3168 ft | 62 kts | 17° |
| 2026-04-25 18:46 | 60.15389 | 19.93893 | 3613 ft | 90 kts | 106° |
| 2026-04-25 18:46 | 60.15465 | 19.94856 | 3487 ft | 100 kts | 25° |
| 2026-04-25 18:46 | 60.15590 | 19.96200 | 3842 ft | 137 kts | 84° |
| 2026-04-25 18:46 | 60.15560 | 19.98561 | 3706 ft | 191 kts | 82° |
| 2026-04-25 18:47 | 60.15571 | 20.01359 | 3957 ft | 205 kts | 79° |
| 2026-04-25 18:47 | 60.15796 | 20.04183 | 4234 ft | 205 kts | 64° |
| 2026-04-25 18:47 | 60.16361 | 20.06793 | 4513 ft | 204 kts | 54° |
| 2026-04-25 18:47 | 60.17037 | 20.09337 | 4780 ft | 208 kts | 54° |
| 2026-04-25 18:48 | 60.17701 | 20.11951 | 5055 ft | 212 kts | 55° |
| 2026-04-25 18:48 | 60.18352 | 20.14622 | 5314 ft | 214 kts | 56° |
| 2026-04-25 18:48 | 60.19005 | 20.17308 | 5584 ft | 214 kts | 55° |
| 2026-04-25 18:48 | 60.19655 | 20.19964 | 5853 ft | 215 kts | 55° |
| 2026-04-25 18:49 | 60.20316 | 20.22661 | 6124 ft | 215 kts | 55° |
| 2026-04-25 18:49 | 60.20975 | 20.25358 | 6380 ft | 215 kts | 55° |
| 2026-04-25 18:49 | 60.21634 | 20.28058 | 6639 ft | 215 kts | 55° |
| 2026-04-25 18:49 | 60.22296 | 20.30771 | 6902 ft | 216 kts | 55° |
| 2026-04-25 18:50 | 60.22956 | 20.33484 | 7162 ft | 216 kts | 55° |
| 2026-04-25 18:50 | 60.23619 | 20.36211 | 7425 ft | 217 kts | 55° |
| 2026-04-25 18:50 | 60.24281 | 20.38935 | 7694 ft | 217 kts | 55° |
| 2026-04-25 18:50 | 60.24945 | 20.41672 | 7957 ft | 218 kts | 55° |
| 2026-04-25 18:51 | 60.25385 | 20.43488 | 8147 ft | 218 kts | 55° |
| 2026-04-25 18:51 | 60.25825 | 20.45304 | 8325 ft | 218 kts | 55° |
| 2026-04-25 18:51 | 60.26931 | 20.49879 | 8806 ft | 219 kts | 55° |
| 2026-04-25 18:51 | 60.27602 | 20.52654 | 9126 ft | 220 kts | 55° |
| 2026-04-25 18:52 | 60.28262 | 20.55403 | 9570 ft | 216 kts | 54° |
| 2026-04-25 18:52 | 60.28917 | 20.58119 | 9954 ft | 216 kts | 54° |
| 2026-04-25 18:52 | 60.29365 | 20.59963 | 9977 ft | 226 kts | 55° |
| 2026-04-25 18:52 | 60.30069 | 20.62881 | 9979 ft | 236 kts | 56° |
| 2026-04-25 18:53 | 60.30792 | 20.65911 | 9989 ft | 243 kts | 56° |
| 2026-04-25 18:53 | 60.31771 | 20.70015 | 9983 ft | 247 kts | 56° |
| 2026-04-25 18:53 | 60.32519 | 20.73148 | 9984 ft | 248 kts | 56° |
| 2026-04-25 18:53 | 60.33271 | 20.76299 | 9983 ft | 249 kts | 56° |
| 2026-04-25 18:54 | 60.34521 | 20.81545 | 9983 ft | 250 kts | 56° |
| 2026-04-25 18:54 | 60.35274 | 20.84708 | 9982 ft | 250 kts | 56° |
| 2026-04-25 18:54 | 60.36026 | 20.87874 | 9969 ft | 250 kts | 56° |
| 2026-04-25 18:55 | 60.36777 | 20.91041 | 9975 ft | 250 kts | 56° |
| 2026-04-25 18:55 | 60.37773 | 20.95244 | 9971 ft | 250 kts | 56° |
| 2026-04-25 18:55 | 60.38279 | 20.97385 | 9971 ft | 250 kts | 56° |
| 2026-04-25 18:55 | 60.39271 | 21.01587 | 9969 ft | 250 kts | 56° |
| 2026-04-25 18:56 | 60.39778 | 21.03741 | 9962 ft | 250 kts | 56° |
| 2026-04-25 18:56 | 60.40516 | 21.06874 | 9961 ft | 250 kts | 56° |
| 2026-04-25 18:56 | 60.41263 | 21.10053 | 9961 ft | 250 kts | 56° |
| 2026-04-25 18:56 | 60.42011 | 21.13237 | 9964 ft | 250 kts | 56° |
| 2026-04-25 18:57 | 60.42757 | 21.16422 | 9959 ft | 250 kts | 56° |
| 2026-04-25 18:57 | 60.43503 | 21.19606 | 9962 ft | 250 kts | 56° |
| 2026-04-25 18:57 | 60.44246 | 21.22786 | 9942 ft | 250 kts | 57° |
| 2026-04-25 18:57 | 60.44738 | 21.24895 | 9942 ft | 250 kts | 57° |
| 2026-04-25 18:58 | 60.45724 | 21.29136 | 9945 ft | 243 kts | 57° |
| 2026-04-25 18:58 | 60.46423 | 21.35771 | 9723 ft | 246 kts | 77° |
| 2026-04-25 18:58 | 60.46501 | 21.39177 | 9325 ft | 245 kts | 78° |
| 2026-04-25 18:59 | 60.46585 | 21.46013 | 8526 ft | 241 kts | 79° |
| 2026-04-25 18:59 | 60.46635 | 21.52736 | 7710 ft | 237 kts | 79° |
| 2026-04-25 19:00 | 60.46672 | 21.59373 | 6899 ft | 234 kts | 79° |
| 2026-04-25 19:00 | 60.46692 | 21.62665 | 6528 ft | 233 kts | 78° |
| 2026-04-25 19:01 | 60.46743 | 21.69157 | 5740 ft | 227 kts | 77° |
| 2026-04-25 19:01 | 60.47039 | 21.72123 | 5319 ft | 213 kts | 62° |
| 2026-04-25 19:01 | 60.47544 | 21.74924 | 4909 ft | 211 kts | 59° |
| 2026-04-25 19:01 | 60.48024 | 21.77701 | 4512 ft | 205 kts | 63° |
| 2026-04-25 19:02 | 60.48779 | 21.83130 | 3732 ft | 194 kts | 64° |
| 2026-04-25 19:02 | 60.49134 | 21.85698 | 3452 ft | 184 kts | 63° |
| 2026-04-25 19:02 | 60.49396 | 21.87587 | 3244 ft | 175 kts | 63° |
| 2026-04-25 19:03 | 60.49876 | 21.92006 | 2795 ft | 207 kts | 74° |
| 2026-04-25 19:03 | 60.50046 | 21.96031 | 2434 ft | 219 kts | 75° |
| 2026-04-25 19:03 | 60.50180 | 21.99090 | 2171 ft | 223 kts | 75° |
| 2026-04-25 19:04 | 60.50462 | 22.05273 | 2060 ft | 213 kts | 74° |
| 2026-04-25 19:04 | 60.50589 | 22.08173 | 1989 ft | 195 kts | 74° |
| 2026-04-25 19:05 | 60.50785 | 22.12835 | 1611 ft | 143 kts | 70° |
| 2026-04-25 19:05 | 60.50950 | 22.16381 | 1018 ft | 101 kts | 71° |
| 2026-04-25 19:05 | 60.51010 | 22.17680 | 794 ft | 84 kts | 72° |
| 2026-04-25 19:06 | 60.51072 | 22.18844 | 706 ft | 88 kts | 73° |
| 2026-04-25 19:06 | 60.51203 | 22.21476 | 486 ft | 98 kts | 77° |
| 2026-04-25 19:06 | 60.51263 | 22.22871 | 345 ft | 96 kts | 75° |
| 2026-04-25 19:07 | 60.51364 | 22.25231 | 153 ft | 54 kts | 89° |
| 2026-04-25 19:07 | 60.51392 | 22.25705 | 158 ft | 28 kts | 84° |
| 2026-04-25 19:08 | 60.51428 | 22.26611 | 167 ft | 19 kts | 87° |
| 2026-04-25 19:08 | 60.51330 | 22.26757 | 167 ft | 18 kts | 129° |
| 2026-04-25 19:09 | 60.51248 | 22.27151 | 170 ft | 0 kts | 128° |